createdAt,value
2019-05-26T00:00:41.660Z,100.00
2019-05-26T00:03:08.663Z,100.00
2019-05-26T00:05:35.678Z,100.00
2019-05-26T00:08:02.799Z,100.00
2019-05-26T00:10:29.817Z,100.00
2019-05-26T00:12:56.777Z,100.00
2019-05-26T00:15:23.718Z,100.00
2019-05-26T00:17:50.967Z,100.00
2019-05-26T00:20:17.980Z,100.00
2019-05-26T00:22:46.030Z,100.00
2019-05-26T00:25:13.301Z,100.00
2019-05-26T00:27:40.274Z,100.00
2019-05-26T00:30:07.957Z,100.00
2019-05-26T00:32:35.087Z,100.00
2019-05-26T00:35:02.049Z,100.00
2019-05-26T00:37:28.994Z,100.00
2019-05-26T00:39:55.997Z,100.00
2019-05-26T00:42:22.957Z,100.00
2019-05-26T00:44:49.886Z,100.00
2019-05-26T00:47:17.006Z,100.00
2019-05-26T00:49:44.032Z,100.00
2019-05-26T00:52:11.196Z,100.00
2019-05-26T00:54:38.272Z,100.00
2019-05-26T00:57:05.423Z,100.00
2019-05-26T00:59:32.689Z,100.00
2019-05-26T01:01:59.788Z,100.00
2019-05-26T01:04:27.049Z,100.00
2019-05-26T01:06:54.000Z,100.00
2019-05-26T01:09:21.009Z,100.00
2019-05-26T01:11:48.117Z,100.00
2019-05-26T01:14:15.193Z,100.00
2019-05-26T01:16:42.193Z,100.00
2019-05-26T01:19:09.126Z,100.00
2019-05-26T01:21:36.085Z,100.00
2019-05-26T01:24:03.390Z,100.00
2019-05-26T01:26:30.375Z,100.00
2019-05-26T01:28:57.366Z,100.00
2019-05-26T01:31:24.338Z,100.00
2019-05-26T01:33:51.321Z,100.00
2019-05-26T01:36:18.598Z,100.00
2019-05-26T01:38:45.953Z,100.00
2019-05-26T01:41:12.940Z,100.00
2019-05-26T01:43:39.904Z,100.00
2019-05-26T01:46:06.870Z,100.00
2019-05-26T01:48:33.874Z,100.00
2019-05-26T01:51:00.826Z,100.00
2019-05-26T01:53:27.853Z,100.00
2019-05-26T01:55:54.868Z,100.00
2019-05-26T01:58:21.828Z,100.00
2019-05-26T02:00:48.776Z,100.00
2019-05-26T02:03:15.760Z,100.00
2019-05-26T02:05:42.713Z,100.00
2019-05-26T02:08:12.071Z,100.00
2019-05-26T02:10:38.551Z,100.00
2019-05-26T02:13:05.516Z,100.00
2019-05-26T02:15:32.513Z,100.00
2019-05-26T02:17:59.472Z,100.00
2019-05-26T02:20:26.472Z,100.00
2019-05-26T02:22:53.451Z,100.00
2019-05-26T02:25:22.305Z,100.00
2019-05-26T02:27:49.261Z,100.00
2019-05-26T02:30:16.865Z,100.00
2019-05-26T02:32:45.598Z,100.00
2019-05-26T02:35:13.093Z,100.00
2019-05-26T02:37:40.087Z,100.00
2019-05-26T02:40:08.919Z,100.00
2019-05-26T02:42:35.909Z,100.00
2019-05-26T02:45:07.171Z,100.00
2019-05-26T02:47:34.135Z,100.00
2019-05-26T02:50:01.091Z,100.00
2019-05-26T02:52:28.094Z,100.00
2019-05-26T02:54:55.140Z,100.00
2019-05-26T02:57:22.089Z,100.00
2019-05-26T02:59:49.164Z,100.00
2019-05-26T03:02:16.110Z,100.00
2019-05-26T03:04:43.191Z,100.00
2019-05-26T03:07:11.094Z,100.00
2019-05-26T03:09:40.048Z,100.00
2019-05-26T03:12:07.003Z,100.00
2019-05-26T03:14:35.308Z,100.00
2019-05-26T03:17:02.591Z,100.00
2019-05-26T03:19:32.670Z,100.00
2019-05-26T03:22:01.486Z,100.00
2019-05-26T03:24:28.428Z,100.00
2019-05-26T03:26:55.805Z,100.00
2019-05-26T03:29:22.907Z,100.00
2019-05-26T03:31:49.872Z,100.00
2019-05-26T03:34:16.828Z,100.00
2019-05-26T03:36:43.795Z,100.00
2019-05-26T03:39:10.778Z,100.00
2019-05-26T03:41:37.849Z,100.00
2019-05-26T03:44:04.807Z,100.00
2019-05-26T03:46:32.447Z,100.00
2019-05-26T03:48:59.422Z,100.00
2019-05-26T03:51:26.377Z,100.00
2019-05-26T03:53:53.417Z,100.00
2019-05-26T03:56:20.411Z,100.00
2019-05-26T03:58:47.369Z,100.00
2019-05-26T04:01:14.360Z,100.00
2019-05-26T04:03:42.523Z,100.00
2019-05-26T04:06:09.569Z,100.00
2019-05-26T04:08:36.849Z,100.00
2019-05-26T04:11:03.807Z,100.00
2019-05-26T04:13:30.764Z,100.00
2019-05-26T04:15:57.768Z,100.00
2019-05-26T04:18:24.731Z,100.00
2019-05-26T04:20:51.697Z,100.00
2019-05-26T04:23:18.677Z,100.00
2019-05-26T04:25:45.663Z,100.00
2019-05-26T04:28:12.617Z,100.00
2019-05-26T04:30:39.612Z,100.00
2019-05-26T04:33:06.587Z,100.00
2019-05-26T04:35:33.539Z,100.00
2019-05-26T04:38:00.534Z,100.00
2019-05-26T04:40:28.230Z,100.00
2019-05-26T04:42:55.359Z,100.00
2019-05-26T04:45:22.423Z,100.00
2019-05-26T04:47:49.393Z,100.00
2019-05-26T04:50:16.666Z,100.00
2019-05-26T04:53:04.104Z,100.00
2019-05-26T04:55:12.663Z,100.00
2019-05-26T04:57:39.650Z,100.00
2019-05-26T05:00:07.747Z,100.00
2019-05-26T05:02:34.893Z,100.00
2019-05-26T05:05:01.942Z,100.00
2019-05-26T05:07:29.903Z,100.00
2019-05-26T05:09:56.850Z,100.00
2019-05-26T05:12:23.835Z,100.00
2019-05-26T05:14:52.592Z,100.00
2019-05-26T05:17:19.606Z,100.00
2019-05-26T05:19:46.626Z,100.00
2019-05-26T05:22:13.570Z,100.00
2019-05-26T05:24:40.510Z,100.00
2019-05-26T05:27:07.498Z,100.00
2019-05-26T05:29:34.467Z,100.00
2019-05-26T05:32:01.493Z,100.00
2019-05-26T05:34:28.431Z,100.00
2019-05-26T05:36:55.385Z,100.00
2019-05-26T05:39:22.372Z,100.00
2019-05-26T05:41:49.308Z,100.00
2019-05-26T05:44:16.259Z,100.00
2019-05-26T05:46:43.232Z,100.00
2019-05-26T05:49:10.248Z,100.00
2019-05-26T05:51:37.356Z,100.00
2019-05-26T05:54:07.292Z,100.00
2019-05-26T05:56:34.272Z,100.00
2019-05-26T05:59:03.719Z,100.00
2019-05-26T06:01:30.714Z,100.00
2019-05-26T06:03:57.726Z,100.00
2019-05-26T06:06:24.681Z,100.00
2019-05-26T06:08:51.799Z,100.00
2019-05-26T06:11:20.581Z,100.00
2019-05-26T06:13:47.570Z,100.00
2019-05-26T06:16:14.772Z,100.00
2019-05-26T06:18:41.736Z,100.00
2019-05-26T06:21:08.686Z,100.00
2019-05-26T06:23:36.963Z,100.00
2019-05-26T06:26:04.539Z,100.00
2019-05-26T06:28:31.542Z,100.00
2019-05-26T06:30:58.525Z,100.00
2019-05-26T06:33:25.516Z,100.00
2019-05-26T06:35:52.623Z,100.00
2019-05-26T06:38:19.587Z,100.00
2019-05-26T06:40:46.576Z,100.00
2019-05-26T06:43:13.555Z,100.00
2019-05-26T06:45:40.529Z,100.00
2019-05-26T06:48:07.558Z,100.00
2019-05-26T06:50:34.557Z,100.00
2019-05-26T06:53:01.517Z,100.00
2019-05-26T06:55:29.654Z,100.00
2019-05-26T06:57:56.673Z,100.00
2019-05-26T07:00:24.925Z,100.00
2019-05-26T07:02:51.953Z,100.00
2019-05-26T07:05:19.012Z,100.00
2019-05-26T07:07:47.782Z,100.00
2019-05-26T07:10:15.077Z,100.00
2019-05-26T07:12:42.075Z,100.00
2019-05-26T07:15:09.660Z,98.83
2019-05-26T07:17:39.706Z,96.84
2019-05-26T07:20:07.143Z,96.60
2019-05-26T07:22:35.928Z,95.53
2019-05-26T07:25:03.510Z,95.05
2019-05-26T07:27:30.477Z,94.78
2019-05-26T07:29:57.455Z,93.21
2019-05-26T07:32:24.469Z,92.23
2019-05-26T07:34:51.830Z,92.14
2019-05-26T07:37:18.790Z,92.35
2019-05-26T07:39:45.737Z,90.98
2019-05-26T07:42:12.727Z,91.87
2019-05-26T07:44:39.914Z,92.37
2019-05-26T07:47:07.771Z,91.36
2019-05-26T07:49:34.827Z,89.36
2019-05-26T07:52:03.728Z,88.23
2019-05-26T07:54:30.683Z,88.11
2019-05-26T07:56:57.698Z,87.61
2019-05-26T07:59:24.650Z,87.37
2019-05-26T08:01:51.607Z,87.18
2019-05-26T08:04:18.740Z,86.05
2019-05-26T08:06:45.710Z,85.73
2019-05-26T08:09:12.693Z,85.00
2019-05-26T08:11:39.677Z,84.06
2019-05-26T08:14:06.899Z,84.45
2019-05-26T08:16:33.997Z,84.66
2019-05-26T08:19:01.147Z,84.38
2019-05-26T08:21:28.195Z,83.77
2019-05-26T08:23:56.243Z,81.73
2019-05-26T08:26:23.576Z,81.73
2019-05-26T08:28:52.446Z,82.03
2019-05-26T08:31:19.531Z,81.52
2019-05-26T08:33:46.573Z,81.76
2019-05-26T08:36:13.541Z,81.40
2019-05-26T08:38:40.533Z,81.77
2019-05-26T08:41:07.659Z,82.60
2019-05-26T08:43:34.638Z,83.13
2019-05-26T08:46:01.604Z,82.79
2019-05-26T08:48:28.604Z,82.63
2019-05-26T08:50:55.574Z,82.39
2019-05-26T08:53:22.644Z,81.32
2019-05-26T08:55:49.645Z,81.82
2019-05-26T08:58:16.602Z,81.79
2019-05-26T09:00:43.597Z,81.96
2019-05-26T09:03:10.575Z,82.50
2019-05-26T09:05:37.535Z,81.75
2019-05-26T09:08:07.952Z,81.35
2019-05-26T09:10:33.493Z,81.81
2019-05-26T09:13:01.615Z,82.13
2019-05-26T09:15:28.985Z,82.05
2019-05-26T09:17:55.982Z,81.14
2019-05-26T09:20:23.283Z,80.61
2019-05-26T09:22:50.239Z,79.58
2019-05-26T09:25:17.231Z,80.33
2019-05-26T09:27:44.340Z,80.07
2019-05-26T09:30:12.123Z,79.07
2019-05-26T09:32:39.063Z,78.63
2019-05-26T09:35:07.088Z,77.93
2019-05-26T09:37:34.069Z,77.16
2019-05-26T09:40:01.032Z,77.18
2019-05-26T09:42:28.014Z,74.61
2019-05-26T09:44:55.079Z,75.38
2019-05-26T09:47:22.159Z,74.53
2019-05-26T09:49:58.431Z,73.94
2019-05-26T09:52:26.495Z,73.12
2019-05-26T09:54:53.498Z,73.08
2019-05-26T09:57:20.497Z,71.42
2019-05-26T09:59:47.449Z,71.46
2019-05-26T10:02:31.062Z,70.34
2019-05-26T10:04:58.134Z,70.12
2019-05-26T10:07:25.103Z,70.30
2019-05-26T10:09:52.108Z,69.22
2019-05-26T10:12:19.110Z,68.65
2019-05-26T10:14:47.862Z,68.93
2019-05-26T10:17:15.097Z,68.42
2019-05-26T10:19:42.074Z,68.35
2019-05-26T10:22:10.894Z,68.95
2019-05-26T10:24:37.910Z,69.21
2019-05-26T10:27:05.323Z,68.46
2019-05-26T10:29:32.324Z,68.02
2019-05-26T10:31:59.506Z,68.01
2019-05-26T10:34:26.484Z,67.84
2019-05-26T10:36:53.449Z,68.32
2019-05-26T10:39:20.466Z,67.53
2019-05-26T10:41:48.639Z,67.38
2019-05-26T10:44:15.673Z,66.90
2019-05-26T10:46:43.758Z,67.75
2019-05-26T10:49:10.810Z,68.02
2019-05-26T10:51:38.607Z,66.46
2019-05-26T10:54:05.585Z,66.21
2019-05-26T10:56:32.556Z,64.23
2019-05-26T10:58:59.575Z,65.59
2019-05-26T11:01:26.670Z,67.22
2019-05-26T11:03:53.645Z,67.21
2019-05-26T11:06:20.791Z,65.42
2019-05-26T11:08:47.772Z,64.40
2019-05-26T11:11:14.728Z,63.05
2019-05-26T11:13:41.781Z,62.31
2019-05-26T11:16:08.851Z,62.30
2019-05-26T11:18:35.833Z,63.24
2019-05-26T11:21:02.830Z,62.05
2019-05-26T11:23:29.856Z,63.30
2019-05-26T11:25:56.810Z,63.15
2019-05-26T11:28:23.788Z,64.09
2019-05-26T11:30:51.012Z,64.66
2019-05-26T11:33:18.071Z,64.74
2019-05-26T11:35:45.100Z,64.38
2019-05-26T11:38:12.080Z,63.88
2019-05-26T11:40:39.079Z,63.26
2019-05-26T11:43:16.224Z,63.17
2019-05-26T11:45:35.081Z,62.90
2019-05-26T11:48:02.117Z,63.69
2019-05-26T11:50:31.081Z,63.37
2019-05-26T11:52:58.211Z,62.12
2019-05-26T11:55:27.783Z,62.30
2019-05-26T11:57:54.190Z,63.22
2019-05-26T12:00:21.427Z,63.18
2019-05-26T12:02:48.407Z,63.22
2019-05-26T12:05:17.697Z,62.86
2019-05-26T12:07:44.669Z,61.27
2019-05-26T12:10:14.465Z,62.40
2019-05-26T12:12:41.919Z,62.04
2019-05-26T12:15:10.923Z,61.00
2019-05-26T12:17:38.811Z,59.49
2019-05-26T12:20:06.288Z,59.81
2019-05-26T12:22:33.397Z,58.87
2019-05-26T12:25:00.465Z,57.97
2019-05-26T12:27:27.586Z,56.46
2019-05-26T12:29:54.613Z,57.10
2019-05-26T12:32:21.605Z,57.83
2019-05-26T12:34:48.612Z,57.44
2019-05-26T12:37:15.726Z,57.36
2019-05-26T12:40:01.224Z,57.47
2019-05-26T12:42:28.283Z,55.94
2019-05-26T12:44:55.240Z,56.06
2019-05-26T12:47:22.189Z,56.87
2019-05-26T12:49:49.226Z,56.53
2019-05-26T12:52:16.179Z,56.65
2019-05-26T12:54:43.170Z,56.82
2019-05-26T12:57:10.179Z,56.90
2019-05-26T12:59:37.263Z,55.51
2019-05-26T13:02:04.472Z,54.03
2019-05-26T13:04:34.891Z,54.74
2019-05-26T13:07:01.863Z,55.25
2019-05-26T13:09:28.944Z,56.64
2019-05-26T13:11:55.973Z,57.08
2019-05-26T13:14:22.919Z,56.37
2019-05-26T13:16:49.917Z,57.09
2019-05-26T13:19:17.080Z,56.81
2019-05-26T13:21:44.086Z,56.39
2019-05-26T13:24:11.056Z,56.55
2019-05-26T13:26:38.031Z,56.81
2019-05-26T13:29:05.027Z,56.66
2019-05-26T13:31:33.061Z,55.04
2019-05-26T13:34:00.150Z,55.03
2019-05-26T13:36:27.134Z,55.54
2019-05-26T13:38:54.138Z,55.44
2019-05-26T13:41:21.290Z,54.84
2019-05-26T13:43:48.261Z,54.46
2019-05-26T13:46:15.262Z,54.94
2019-05-26T13:48:42.250Z,54.70
2019-05-26T13:51:09.270Z,55.99
2019-05-26T13:53:36.296Z,55.56
2019-05-26T13:56:03.252Z,55.97
2019-05-26T13:58:30.238Z,55.78
2019-05-26T14:00:57.253Z,56.21
2019-05-26T14:03:24.486Z,56.57
2019-05-26T14:05:51.665Z,58.05
2019-05-26T14:08:18.656Z,58.37
2019-05-26T14:10:45.742Z,58.62
2019-05-26T14:13:12.917Z,58.47
2019-05-26T14:15:39.891Z,58.99
2019-05-26T14:18:07.228Z,58.89
2019-05-26T14:20:39.108Z,60.07
2019-05-26T14:23:07.565Z,60.28
2019-05-26T14:25:35.065Z,60.86
2019-05-26T14:28:02.072Z,61.03
2019-05-26T14:30:29.412Z,61.11
2019-05-26T14:32:57.479Z,60.67
2019-05-26T14:35:24.482Z,61.32
2019-05-26T14:37:51.719Z,61.07
2019-05-26T14:40:19.089Z,61.50
2019-05-26T14:42:46.063Z,62.31
2019-05-26T14:45:13.188Z,62.20
2019-05-26T14:47:40.150Z,63.56
2019-05-26T14:50:08.837Z,63.21
2019-05-26T14:52:37.252Z,63.54
2019-05-26T14:57:15.098Z,64.75
2019-05-26T14:59:42.129Z,64.64
2019-05-26T15:02:09.238Z,65.02
2019-05-26T15:04:36.242Z,65.25
2019-05-26T15:07:03.196Z,66.07
2019-05-26T15:09:30.341Z,66.31
2019-05-26T15:11:57.379Z,65.90
2019-05-26T15:14:24.384Z,65.42
2019-05-26T15:16:51.381Z,65.09
2019-05-26T15:19:18.513Z,65.26
2019-05-26T15:21:45.522Z,65.26
2019-05-26T15:24:12.533Z,65.78
2019-05-26T15:26:39.564Z,66.06
2019-05-26T15:29:06.579Z,65.25
2019-05-26T15:31:33.594Z,64.96
2019-05-26T15:34:00.721Z,65.41
2019-05-26T15:36:27.770Z,65.50
2019-05-26T15:38:55.835Z,65.46
2019-05-26T15:41:22.835Z,66.17
2019-05-26T15:43:49.945Z,65.59
2019-05-26T15:46:25.072Z,65.60
2019-05-26T15:48:47.508Z,65.32
2019-05-26T15:51:14.642Z,62.65
2019-05-26T15:53:41.647Z,61.53
2019-05-26T15:56:08.731Z,61.15
2019-05-26T15:58:35.766Z,61.25
2019-05-26T16:01:03.035Z,61.27
2019-05-26T16:03:30.036Z,60.73
2019-05-26T16:05:57.099Z,60.83
2019-05-26T16:08:24.240Z,61.52
2019-05-26T16:10:51.314Z,62.26
2019-05-26T16:13:18.342Z,61.67
2019-05-26T16:15:47.118Z,62.20
2019-05-26T16:18:14.117Z,61.03
2019-05-26T16:20:41.058Z,60.18
2019-05-26T16:23:09.047Z,59.17
2019-05-26T16:25:36.162Z,57.84
2019-05-26T16:28:03.445Z,57.34
2019-05-26T16:30:30.435Z,57.81
2019-05-26T16:32:57.430Z,58.93
2019-05-26T16:35:24.412Z,58.75
2019-05-26T16:37:51.403Z,59.54
2019-05-26T16:40:19.496Z,58.68
2019-05-26T16:42:46.465Z,57.07
2019-05-26T16:45:13.456Z,57.71
2019-05-26T16:47:40.476Z,57.94
2019-05-26T16:50:07.832Z,59.62
2019-05-26T16:52:34.888Z,59.58
2019-05-26T16:55:01.867Z,60.26
2019-05-26T16:57:28.872Z,60.51
2019-05-26T16:59:55.870Z,60.19
2019-05-26T17:02:24.749Z,60.30
2019-05-26T17:04:51.740Z,59.99
2019-05-26T17:07:18.877Z,61.22
2019-05-26T17:09:45.896Z,62.34
2019-05-26T17:12:12.874Z,63.26
2019-05-26T17:14:39.952Z,63.86
2019-05-26T17:17:14.565Z,64.20
2019-05-26T17:19:35.895Z,64.83
2019-05-26T17:22:03.105Z,65.10
2019-05-26T17:24:32.169Z,65.85
2019-05-26T17:26:59.655Z,66.37
2019-05-26T17:29:26.777Z,66.63
2019-05-26T17:31:53.757Z,67.07
2019-05-26T17:34:20.893Z,67.58
2019-05-26T17:36:47.871Z,67.62
2019-05-26T17:39:16.665Z,68.67
2019-05-26T17:41:43.671Z,69.02
2019-05-26T17:44:10.797Z,69.22
2019-05-26T17:46:37.832Z,70.10
2019-05-26T17:49:04.995Z,70.40
2019-05-26T17:51:32.110Z,70.32
2019-05-26T17:54:01.017Z,70.79
2019-05-26T17:56:28.021Z,70.47
2019-05-26T17:58:55.019Z,69.87
2019-05-26T18:01:22.015Z,69.38
2019-05-26T18:03:49.021Z,67.60
2019-05-26T18:06:16.061Z,64.26
2019-05-26T18:08:43.045Z,61.77
2019-05-26T18:11:10.099Z,60.45
2019-05-26T18:13:37.101Z,60.96
2019-05-26T18:16:04.127Z,61.25
2019-05-26T18:18:31.201Z,62.25
2019-05-26T18:20:59.401Z,63.19
2019-05-26T18:23:26.393Z,63.41
2019-05-26T18:25:53.494Z,63.22
2019-05-26T18:28:20.534Z,62.69
2019-05-26T18:30:47.509Z,63.07
2019-05-26T18:33:14.583Z,63.93
2019-05-26T18:35:41.616Z,64.58
2019-05-26T18:38:08.631Z,64.65
2019-05-26T18:40:41.635Z,65.08
2019-05-26T18:43:08.762Z,65.08
2019-05-26T18:45:35.746Z,64.98
2019-05-26T18:48:03.979Z,64.77
2019-05-26T18:50:31.109Z,65.17
2019-05-26T18:52:58.513Z,65.50
2019-05-26T18:55:25.804Z,65.38
2019-05-26T18:57:52.816Z,65.97
2019-05-26T19:00:20.060Z,66.76
2019-05-26T19:02:47.211Z,67.14
2019-05-26T19:05:14.956Z,67.69
2019-05-26T19:07:42.002Z,67.95
2019-05-26T19:10:09.642Z,68.17
2019-05-26T19:12:36.678Z,68.84
2019-05-26T19:15:04.303Z,69.26
2019-05-26T19:17:31.324Z,69.58
2019-05-26T19:20:12.885Z,70.15
2019-05-26T19:22:27.387Z,70.80
2019-05-26T19:24:54.448Z,71.35
2019-05-26T19:27:22.740Z,71.45
2019-05-26T19:29:51.530Z,71.72
2019-05-26T19:32:18.702Z,71.93
2019-05-26T19:34:45.745Z,71.93
2019-05-26T19:37:12.959Z,72.21
2019-05-26T19:39:40.000Z,72.68
2019-05-26T19:42:07.103Z,73.43
2019-05-26T19:44:34.227Z,74.38
2019-05-26T19:47:01.217Z,75.13
2019-05-26T19:49:28.226Z,75.81
2019-05-26T19:51:56.833Z,76.51
2019-05-26T19:54:23.892Z,76.98
2019-05-26T19:56:50.906Z,77.73
2019-05-26T19:59:18.236Z,78.68
2019-05-26T20:01:45.384Z,79.29
2019-05-26T20:04:12.543Z,79.88
2019-05-26T20:06:39.736Z,80.66
2019-05-26T20:09:08.292Z,81.45
2019-05-26T20:11:35.321Z,82.51
2019-05-26T20:14:02.705Z,83.24
2019-05-26T20:16:30.821Z,83.92
2019-05-26T20:18:58.094Z,83.73
2019-05-26T20:21:25.239Z,84.23
2019-05-26T20:24:10.999Z,84.20
2019-05-26T20:26:38.246Z,83.99
2019-05-26T20:29:05.255Z,83.79
2019-05-26T20:31:32.256Z,83.71
2019-05-26T20:34:01.438Z,83.92
2019-05-26T20:36:29.560Z,84.23
2019-05-26T20:38:57.708Z,84.18
2019-05-26T20:41:24.789Z,84.49
2019-05-26T20:43:52.704Z,84.74
2019-05-26T20:46:19.804Z,84.93
2019-05-26T20:48:46.796Z,85.27
2019-05-26T20:51:13.780Z,85.49
2019-05-26T20:53:41.009Z,85.97
2019-05-26T20:56:08.032Z,86.40
2019-05-26T20:58:35.218Z,87.07
2019-05-26T21:01:02.224Z,87.41
2019-05-26T21:03:29.371Z,87.79
2019-05-26T21:05:56.398Z,87.92
2019-05-26T21:08:23.409Z,88.14
2019-05-26T21:10:50.453Z,88.25
2019-05-26T21:13:18.737Z,88.38
2019-05-26T21:15:46.926Z,88.04
2019-05-26T21:18:13.967Z,88.39
2019-05-26T21:20:41.504Z,88.73
2019-05-26T21:23:08.549Z,88.87
2019-05-26T21:25:35.578Z,89.10
2019-05-26T21:28:02.567Z,89.28
2019-05-26T21:30:29.606Z,89.48
2019-05-26T21:32:57.224Z,89.55
2019-05-26T21:35:25.953Z,89.76
2019-05-26T21:37:52.949Z,90.04
2019-05-26T21:40:20.110Z,89.88
2019-05-26T21:42:47.124Z,90.12
2019-05-26T21:45:14.514Z,90.44
2019-05-26T21:47:41.520Z,90.50
2019-05-26T21:50:09.477Z,90.93
2019-05-26T21:52:36.687Z,90.94
2019-05-26T21:55:04.352Z,91.38
2019-05-26T21:57:31.356Z,91.72
2019-05-26T21:59:58.389Z,91.99
2019-05-26T22:02:25.375Z,91.65
2019-05-26T22:04:52.353Z,91.50
2019-05-26T22:07:19.472Z,92.10
2019-05-26T22:09:46.529Z,92.00
2019-05-26T22:12:13.608Z,92.34
2019-05-26T22:14:40.637Z,92.42
2019-05-26T22:17:07.705Z,92.67
2019-05-26T22:19:34.725Z,92.66
2019-05-26T22:22:01.930Z,92.67
2019-05-26T22:24:29.007Z,92.83
2019-05-26T22:26:56.020Z,92.88
2019-05-26T22:29:23.135Z,93.09
2019-05-26T22:31:50.132Z,93.52
2019-05-26T22:34:17.156Z,93.65
2019-05-26T22:36:47.670Z,93.75
2019-05-26T22:39:14.815Z,94.09
2019-05-26T22:41:41.966Z,94.25
2019-05-26T22:44:08.967Z,94.96
2019-05-26T22:46:35.969Z,95.65
2019-05-26T22:49:02.994Z,96.45
2019-05-26T22:51:30.007Z,96.76
2019-05-26T22:53:58.025Z,97.37
2019-05-26T22:56:25.057Z,96.93
2019-05-26T22:58:52.305Z,96.73
2019-05-26T23:01:19.359Z,97.17
2019-05-26T23:03:46.381Z,97.46
2019-05-26T23:06:13.537Z,98.08
2019-05-26T23:08:40.774Z,98.30
2019-05-26T23:11:07.771Z,98.55
2019-05-26T23:13:34.839Z,98.09
2019-05-26T23:16:01.845Z,98.51
2019-05-26T23:18:28.861Z,99.20
2019-05-26T23:20:55.878Z,99.89
2019-05-26T23:23:23.017Z,100.00
2019-05-26T23:25:50.049Z,100.00
2019-05-26T23:28:17.190Z,100.00
2019-05-26T23:30:44.665Z,100.00
2019-05-26T23:33:13.430Z,100.00
2019-05-26T23:35:40.545Z,100.00
2019-05-26T23:38:07.529Z,100.00
2019-05-26T23:40:34.525Z,100.00
2019-05-26T23:43:01.974Z,100.00
2019-05-26T23:45:29.053Z,100.00
2019-05-26T23:47:56.180Z,100.00
2019-05-26T23:50:23.259Z,100.00
2019-05-26T23:52:50.260Z,100.00
2019-05-26T23:55:17.305Z,100.00
2019-05-26T23:57:44.395Z,100.00
